Nizhnevartovsk Airport
USNN : now visible

Airfield :











YOU CAN JOIN US ON...

 
LOGIN :

Register | Disclaimer

   EN    FR    IT 

 









Legend :    VFR   Marginal VFR   IFR   Intensive IFR   Very Intensive IFR
Visi :
Ceiling :
>= 8 km
>= 3000ft
5 to 8 km
1000 to 3000 ft
1500m to 5 km
500 to 1000 ft
800 to 1500m
200 to 500 ft
< 800m
< 200 ft
Symbols :   Thunderstorms  Fog  Heavy snow  Heavy precipitations  Wind > 20 kt






- Airport Elevation : 177 ft
- IATA code : NJC


USNN - Nizhnevartovsk

CURRENT METAR :
  • 291300Z 17005MPS 4500 -SN OVC035 M08/M10 Q1010 R21/491041 TEMPO 0800 +SN RMK QFE753

EXPIRED METARs :
  • 291230Z 17005MPS 6000 -SN OVC027 M08/M10 Q1010 R21/491041 TEMPO 0800 +SN RMK QFE753
  • 291200Z 17006MPS 2700 -SN OVC030 M09/M10 Q1011 R21/491041 TEMPO 0800 +SN RMK QFE753
  • 291130Z 17006MPS 1100 0900SW R21/1200U +SN VV011 M09/M10 Q1011 R21/491041 TEMPO 0400 +SN RMK QFE753
  • 291100Z 16006MPS 0800 0700N R21/1000D +SN VV007 M09/M10 Q1011 R21/491041 TEMPO 0400 +SN RMK QFE754
  • 291030Z 15005MPS 1100 0900N R21/1300U +SN OVC016 M09/M11 Q1012 R21/491041 TEMPO 0600 +SN RMK QFE754

TAF TAF USNN
Valid from the 29 at 12:00 until the 30 at 12:00 UTC


291100Z 2912/3012 15003G10MPS 1500 SHSN BKN007 BKN016CB OVC020
TEMPO 2912/2918 0600 +SHSN FZRA VV003
FM292100 05003MPS 6000 -SHSN BKN005 BKN016CB
BECMG 3003/3004 29003G08MPS
USRR FIR / Asia



MET'MAP, your aeronautical weather chart ! - Copyright ORBIFLY December 2007 - Disclaimer

ORBIFLY MET'MAP TEAM :

Programming & Development : Alexandra Zaïnal
Concept & original design : Baudouin d'Aumeries
Assistance for programming : Marc-Olivier Méhu
Technical & hardware support : Manuel Goepfert

Contact : metmap@orbifly.com




SOURCES & CREDITS :

   NOAA       Earth
Advisory